Flight Track Log - Related Links

Times and Time Zones

All times are in EDT time to prevent confusion due to time zone crossing. See the XOJ549 flight status page for this flight to view local times or setup timezone preferences in your user account.

Time Position Orientation Groundspeed Altitude Reporting Facility
EDT Latitude Longitude Course Direction KTS MPH feet Rate Location/Type
Tue 03:39:30 PM 43.5300 -96.8292 234° Southwest 228 262 5,200  Level Minneapolis Center
Tue 03:40:33 PM 43.4719 -96.9297 232° Southwest 257 296 11,000 4,790 Climbing Minneapolis Center
Tue 03:41:34 PM 43.4175 -97.0283 233° Southwest 303 349 15,100 2,976 Climbing Minneapolis Center
Tue 03:42:36 PM 43.3578 -97.1333 232° Southwest 344 396 17,100 919 Climbing Minneapolis Center
Tue 03:43:38 PM 43.2950 -97.2503 234° Southwest 375 432 17,000 1,984 Descending Minneapolis Center
Tue 03:44:00 PM 43.2855 -97.2410 231° Southwest  Level FlightAware Approximate
Tue 03:44:40 PM 43.2433 -97.4036 245° Southwest 366 421 21,200  Level Minneapolis Center
Tue 03:45:42 PM 43.1992 -97.5278 244° Southwest 363 418 23,700 2,537 Climbing Minneapolis Center
Tue 03:46:43 PM 43.1547 -97.6581 245° Southwest 374 430 26,400 2,439 Climbing Minneapolis Center
Tue 03:47:45 PM 43.1075 -97.7919 244° Southwest 388 447 28,700 2,129 Climbing Minneapolis Center
Tue 03:48:47 PM 43.0592 -97.9286 244° Southwest 396 456 30,800 2,032 Climbing Minneapolis Center
Tue 03:49:49 PM 43.0100 -98.0658 244° Southwest 402 463 32,900 1,984 Climbing Minneapolis Center
Tue 03:50:51 PM 42.9614 -98.2031 244° Southwest 401 461 34,900 1,790 Climbing Minneapolis Center
Tue 03:51:53 PM 42.9017 -98.3689 244° Southwest 406 467 36,600 1,306 Climbing Minneapolis Center
Tue 03:52:55 PM 42.8569 -98.4919 244° Southwest 416 479 37,600 1,268 Climbing Minneapolis Center
Tue 03:53:56 PM 42.7944 -98.6669 244° Southwest 426 490 39,200 1,268 Climbing Minneapolis Center
Tue 03:54:58 PM 42.7411 -98.8122 243° Southwest 429 494 40,200 1,016 Climbing Minneapolis Center
Tue 03:56:00 PM 42.6883 -98.9578 244° Southwest 430 495 41,300 1,065 Climbing Minneapolis Center
Tue 03:57:02 PM 42.6347 -99.1025 243° Southwest 430 495 42,400 823 Climbing Minneapolis Center
Tue 03:58:04 PM 42.5811 -99.2481 243° Southwest 430 495 43,000 293 Climbing Minneapolis Center
Tue 03:59:05 PM 42.5258 -99.3944 243° Southwest 435 501 43,000  Level Minneapolis Center
Tue 03:59:32 PM 42.4906 -99.4864 243° Southwest 449 517 43,000  Level Denver Center
Tue 04:00:34 PM 42.4331 -99.6425 244° Southwest 462 532 43,000  Level Denver Center
Tue 04:01:09 PM 42.3989 -99.7336 243° Southwest 460 529 43,000  Level Minneapolis Center
Tue 04:01:36 PM 42.3733 -99.7978 242° Southwest 458 527 43,000  Level Denver Center
Tue 04:02:38 PM 42.3183 -99.9447 243° Southwest 459 528 43,000  Level Denver Center
Tue 04:03:39 PM 42.2533 -100.1128 242° Southwest 454 522 43,000  Level Denver Center
Tue 04:04:41 PM 42.1989 -100.2561 243° Southwest 450 518 43,000  Level Denver Center
Tue 04:05:43 PM 42.1336 -100.4225 242° Southwest 451 519 43,000  Level Denver Center
Tue 04:06:45 PM 42.0792 -100.5631 242° Southwest 447 514 43,000  Level Denver Center
Tue 04:07:46 PM 42.0142 -100.7292 242° Southwest 449 517 43,000  Level Denver Center
Tue 04:08:48 PM 41.9586 -100.8703 242° Southwest 448 516 43,000  Level Denver Center
Tue 04:09:50 PM 41.9044 -101.0106 243° Southwest 444 511 43,000  Level Denver Center
Tue 04:10:52 PM 41.8386 -101.1761 242° Southwest 450 518 43,000  Level Denver Center
Tue 04:11:53 PM 41.7819 -101.3178 242° Southwest 451 519 43,000  Level Denver Center
Tue 04:12:55 PM 41.7172 -101.4811 242° Southwest 448 516 43,000 353 Level Denver Center
Tue 04:14:09 PM 41.6564 -101.6753 247° West 444 511 43,800 529 Climbing Denver Center
Tue 04:15:11 PM 41.6231 -101.8250 253° West 440 506 44,200 444 Climbing Denver Center
Tue 04:16:24 PM 41.5908 -101.9731 254° West 437 503 44,800 356 Climbing Denver Center
Tue 04:17:26 PM 41.5456 -102.1731 253° West 440 506 45,000 97 Climbing Denver Center
Tue 04:18:28 PM 41.5033 -102.3519 253° West 451 519 45,000  Level Denver Center
Tue 04:19:29 PM 41.4683 -102.5067 253° West 454 522 45,000  Level Denver Center
Tue 04:20:31 PM 41.4294 -102.6711 253° West 457 526 45,000  Level Denver Center
Tue 04:21:33 PM 41.3931 -102.8269 253° West 459 528 45,000  Level Denver Center
Tue 04:22:34 PM 41.3506 -103.0094 253° West 463 533 45,000  Level Denver Center
Tue 04:23:36 PM 41.3142 -103.1647 253° West 460 529 45,000  Level Denver Center
Tue 04:24:37 PM 41.2714 -103.3439 252° West 455 524 45,000  Level Denver Center
Tue 04:25:39 PM 41.2342 -103.4958 252° West 451 519 45,000  Level Denver Center
Tue 04:26:41 PM 41.1981 -103.6475 252° West 450 518 45,000  Level Denver Center
Tue 04:27:42 PM 41.1556 -103.8239 252° West 448 516 45,000  Level Denver Center
Tue 04:28:44 PM 41.1194 -103.9742 252° West 447 514 45,000  Level Denver Center
Tue 04:29:45 PM 41.0761 -104.1492 252° West 446 513 45,000  Level Denver Center
Tue 04:30:47 PM 41.0392 -104.2989 252° West 445 512 45,000  Level Denver Center
Tue 04:31:49 PM 40.9961 -104.4719 252° West 448 516 45,000  Level Denver Center
Tue 04:32:50 PM 40.9569 -104.6281 252° West 446 513 45,000  Level Denver Center
Tue 04:33:52 PM 40.9167 -104.7822 251° West 443 510 45,000  Level Denver Center
Tue 04:35:06 PM 40.8703 -104.9658 252° West 448 516 45,000  Level Denver Center
Tue 04:36:08 PM 40.8303 -105.1231 251° West 448 516 45,000  Level Denver Center
Tue 04:37:09 PM 40.7897 -105.2803 251° West 450 518 45,000  Level Denver Center
Tue 04:38:10 PM 40.7553 -105.4097 251° West 448 516 45,000  Level Denver Center
Tue 04:39:13 PM 40.7008 -105.6208 251° West 452 520 45,000  Level Denver Center
Tue 04:40:14 PM 40.6592 -105.7778 251° West 452 520 45,000  Level Denver Center
Tue 04:41:16 PM 40.6181 -105.9353 251° West 452 520 45,000  Level Denver Center
Tue 04:42:17 PM 40.5753 -106.0925 250° West 454 522 45,000  Level Denver Center
Tue 04:43:19 PM 40.5342 -106.2475 251° West 453 521 45,000  Level Denver Center
Tue 04:44:21 PM 40.4875 -106.4228 251° West 455 524 45,000  Level Denver Center
Tue 04:45:22 PM 40.4422 -106.5803 249° West 454 522 45,000  Level Denver Center
Tue 04:46:24 PM 40.4006 -106.7364 251° West 454 522 45,000  Level Denver Center
Tue 04:47:26 PM 40.3578 -106.8947 251° West 454 522 45,000  Level Denver Center
Tue 04:48:27 PM 40.3161 -107.0436 250° West 455 524 45,000  Level Denver Center
Tue 04:49:29 PM 40.2678 -107.2167 250° West 454 522 45,000  Level Denver Center
Tue 04:50:31 PM 40.2269 -107.3653 250° West 454 522 45,000  Level Denver Center
Tue 04:51:32 PM 40.1783 -107.5375 250° West 452 520 45,000  Level Denver Center
Tue 04:52:34 PM 40.1358 -107.6850 249° West 453 521 45,000  Level Denver Center
Tue 04:53:36 PM 40.0869 -107.8575 250° West 454 522 45,000  Level Denver Center
Tue 04:54:37 PM 40.0325 -107.9969 243° Southwest 452 520 45,000  Level Denver Center
Tue 04:55:39 PM 39.9647 -108.1272 236° Southwest 453 521 45,000  Level Denver Center
Tue 04:56:41 PM 39.8861 -108.2808 236° Southwest 455 524 45,000  Level Denver Center
Tue 04:57:42 PM 39.8178 -108.4128 236° Southwest 463 533 45,000  Level Denver Center
Tue 04:58:44 PM 39.7628 -108.5214 237° Southwest 452 520 45,000  Level Denver Center
Tue 04:59:46 PM 39.6656 -108.7081 236° Southwest 461 531 45,000  Level Denver Center
Tue 05:00:48 PM 39.5969 -108.8397 236° Southwest 460 529 45,000  Level Denver Center
Tue 05:01:50 PM 39.5178 -108.9900 236° Southwest 452 520 45,000  Level Denver Center
Tue 05:02:51 PM 39.4494 -109.1200 236° Southwest 456 525 45,000  Level Denver Center
Tue 05:03:53 PM 39.3806 -109.2503 236° Southwest 459 528 45,000  Level Denver Center
Tue 05:04:12 PM 39.3586 -109.2947 237° Southwest 459 528 45,000  Level Salt Lake Center
Tue 05:05:13 PM 39.2778 -109.4464 235° Southwest 461 531 45,000  Level Salt Lake Center
Tue 05:06:15 PM 39.2086 -109.5767 236° Southwest 459 528 45,000  Level Salt Lake Center
Tue 05:06:58 PM 39.1506 -109.6856 236° Southwest 461 531 45,000  Level Denver Center
Tue 05:08:00 PM 39.0814 -109.8114 235° Southwest 453 521 45,000  Level Denver Center
Tue 05:09:01 PM 39.0244 -109.9164 235° Southwest 449 517 45,000  Level Denver Center
Tue 05:09:19 PM 38.9919 -109.9803 237° Southwest 446 513 45,000  Level Salt Lake Center
Tue 05:10:20 PM 38.9142 -110.1278 236° Southwest 445 512 45,000  Level Salt Lake Center
Tue 05:11:06 PM 38.8672 -110.2083 233° Southwest 444 511 45,000  Level Denver Center
Tue 05:12:19 PM 38.7889 -110.3525 235° Southwest 442 509 45,000  Level Denver Center
Tue 05:13:22 PM 38.6989 -110.5150 235° Southwest 439 505 45,000  Level Denver Center
Tue 05:14:27 PM 38.6339 -110.6397 236° Southwest 440 506 45,000  Level Salt Lake Center
Tue 05:15:28 PM 38.5539 -110.7808 234° Southwest 439 505 45,000  Level Salt Lake Center
Tue 05:16:30 PM 38.4864 -110.9036 235° Southwest 441 507 45,000  Level Salt Lake Center
Tue 05:17:31 PM 38.4158 -111.0300 235° Southwest 438 504 45,000  Level Salt Lake Center
Tue 05:18:33 PM 38.3453 -111.1553 234° Southwest 437 503 45,000  Level Salt Lake Center
Tue 05:19:34 PM 38.2764 -111.2814 235° Southwest 434 499 45,000  Level Salt Lake Center
Tue 05:20:36 PM 38.1906 -111.4303 234° Southwest 435 501 45,000  Level Salt Lake Center
Tue 05:21:37 PM 38.1208 -111.5542 234° Southwest 433 498 45,000  Level Salt Lake Center
Tue 05:22:39 PM 38.0483 -111.6781 233° Southwest 437 503 45,000  Level Salt Lake Center
Tue 05:23:41 PM 37.9764 -111.8022 234° Southwest 438 504 45,000  Level Salt Lake Center
Tue 05:24:42 PM 37.9050 -111.9278 234° Southwest 438 504 45,000  Level Salt Lake Center
Tue 05:25:44 PM 37.8336 -112.0528 234° Southwest 439 505 45,000  Level Salt Lake Center
Tue 05:26:46 PM 37.7617 -112.1775 234° Southwest 438 504 45,000  Level Salt Lake Center
Tue 05:27:47 PM 37.6744 -112.3264 234° Southwest 439 505 45,000  Level Salt Lake Center
Tue 05:28:49 PM 37.5975 -112.4464 231° Southwest 438 504 45,000  Level Salt Lake Center
Tue 05:29:51 PM 37.5194 -112.5681 231° Southwest 441 507 45,000  Level Salt Lake Center
Tue 05:30:53 PM 37.4403 -112.6897 231° Southwest 442 509 45,000  Level Salt Lake Center
Tue 05:31:54 PM 37.3583 -112.8111 230° Southwest 445 512 45,000  Level Salt Lake Center
Tue 05:32:56 PM 37.2783 -112.9325 230° Southwest 446 513 45,000  Level Salt Lake Center
Tue 05:33:58 PM 37.1997 -113.0519 230° Southwest 443 510 45,000  Level Salt Lake Center
Tue 05:35:00 PM 37.1194 -113.1714 230° Southwest 445 512 45,000  Level Salt Lake Center
Tue 05:36:02 PM 37.0400 -113.2903 230° Southwest 445 512 45,000  Level Salt Lake Center
Tue 05:37:03 PM 36.9600 -113.4103 230° Southwest 447 514 45,000  Level Salt Lake Center
Tue 05:38:05 PM 36.8625 -113.5539 230° Southwest 451 519 45,000  Level Salt Lake Center
Tue 05:39:07 PM 36.7814 -113.6717 229° Southwest 448 516 45,000  Level Salt Lake Center
Tue 05:40:09 PM 36.7003 -113.7897 229° Southwest 449 517 45,000  Level Salt Lake Center
Tue 05:41:23 PM 36.6028 -113.9308 229° Southwest 448 516 45,000  Level Los Angeles Center
Tue 05:42:25 PM 36.5217 -114.0486 229° Southwest 448 516 45,000  Level Los Angeles Center
Tue 05:43:27 PM 36.4425 -114.1642 230° Southwest 444 511 45,000  Level Los Angeles Center
Tue 05:44:29 PM 36.3469 -114.3022 229° Southwest 440 506 45,000 -227 Level Los Angeles Center
Tue 05:46:32 PM 36.1858 -114.5350 229° Southwest 443 510 44,300 -616 Descending Los Angeles Center
Tue 05:47:34 PM 36.1039 -114.6511 229° Southwest 445 512 43,100 -1,161 Descending Los Angeles Center
Tue 05:48:36 PM 36.0219 -114.7656 229° Southwest 444 511 41,900 -1,161 Descending Los Angeles Center
Tue 05:49:38 PM 35.9417 -114.8792 229° Southwest 438 504 40,700 -1,161 Descending Los Angeles Center
Tue 05:50:40 PM 35.8622 -114.9931 229° Southwest 436 502 39,500 -1,220 Descending Los Angeles Center
Tue 05:51:41 PM 35.7825 -115.1044 229° Southwest 431 496 38,200 -1,317 Descending Los Angeles Center
Tue 05:52:43 PM 35.6861 -115.2408 229° Southwest 437 503 36,800 -1,258 Descending Los Angeles Center
Tue 05:53:45 PM 35.6056 -115.3542 229° Southwest 438 504 35,600 -1,161 Descending Los Angeles Center
Tue 05:54:47 PM 35.5253 -115.4653 228° Southwest 433 498 34,400 -1,210 Descending Los Angeles Center
Tue 05:55:49 PM 35.4478 -115.5739 229° Southwest 425 489 33,100 -1,220 Descending Los Angeles Center
Tue 05:56:50 PM 35.3692 -115.6822 228° Southwest 423 487 31,900 -1,171 Descending Los Angeles Center
Tue 05:57:52 PM 35.2897 -115.7922 229° Southwest 429 494 30,700 -1,161 Descending Los Angeles Center
Tue 05:58:54 PM 35.2103 -115.9014 228° Southwest 430 495 29,500 -1,161 Descending Los Angeles Center
Tue 05:59:56 PM 35.1300 -116.0111 228° Southwest 432 497 28,300 -1,161 Descending Los Angeles Center
Tue 06:00:58 PM 35.0544 -116.1144 228° Southwest 416 479 27,100 -1,366 Descending Los Angeles Center
Tue 06:01:59 PM 34.9628 -116.2378 228° Southwest 409 471 25,500 -1,659 Descending Los Angeles Center
Tue 06:03:01 PM 34.8869 -116.3403 228° Southwest 408 470 23,700 -1,258 Descending Los Angeles Center
Tue 06:04:03 PM 34.8111 -116.4439 228° Southwest 408 470 22,900 -823 Descending Los Angeles Center
Tue 06:05:05 PM 34.7875 -116.5739 258° West 393 452 22,000 -823 Descending Los Angeles Center
Tue 06:06:07 PM 34.7733 -116.7064 263° West 394 453 21,200 -774 Descending Los Angeles Center
Tue 06:07:09 PM 34.7611 -116.8336 263° West 386 444 20,400 -585 Descending Los Angeles Center
Tue 06:08:10 PM 34.7475 -116.9608 263° West 381 438 20,000 -195 Descending Los Angeles Center
Tue 06:09:12 PM 34.7322 -117.1131 263° West 378 435 20,000  Level Los Angeles Center
Tue 06:10:14 PM 34.7192 -117.2386 263° West 377 434 20,000  Level Los Angeles Center
Tue 06:11:16 PM 34.7064 -117.3661 263° West 379 436 20,000 -242 Level Los Angeles Center
Tue 06:12:18 PM 34.6925 -117.4936 262° West 379 436 19,500 -1,113 Descending Los Angeles Center
Tue 06:13:20 PM 34.6792 -117.6258 263° West 388 447 17,700 -1,805 Descending Los Angeles Center
Tue 06:14:21 PM 34.6653 -117.7508 262° West 383 441 15,800 -1,805 Descending Los Angeles Center
Tue 06:15:23 PM 34.6544 -117.8661 264° West 358 412 14,000 -1,935 Descending Los Angeles Center
Tue 06:16:25 PM 34.6419 -117.9814 263° West 345 397 11,800 -1,094 Descending Los Angeles Center
Tue 06:18:00 PM 34.5925 -118.2000 258° West  Level FlightAware Approximate
Tue 06:20:52 PM 34.5667 -118.3667 180° South 222 255 8,000  Level Southern California TRACON
Tue 06:21:52 PM 34.5500 -118.4333 253° West 235 270 8,000 -347 Level Southern California TRACON
Tue 06:22:53 PM 34.5000 -118.4833 219° Southwest 219 252 7,300 -793 Descending Southern California TRACON
Tue 06:23:53 PM 34.4667 -118.5167 220° Southwest 195 224 6,400 -850 Descending Southern California TRACON
Tue 06:24:53 PM 34.4167 -118.5333 195° South 158 182 5,600 -850 Descending Southern California TRACON
Tue 06:25:00 PM 34.2000 -118.4833 180° South  Level FlightAware Approximate
Tue 06:25:53 PM 34.3667 -118.5167 165° South 169 194 4,700  Level Southern California TRACON
Tue 06:26:00 PM 34.2098 -118.4900 180° South  Level Estimated
Tue 06:26:53 PM 34.3167 -118.5167 180° South 165 190 3,800  Level Southern California TRACON
Tue 06:27:53 PM 34.2833 -118.5000 158° South 136 157 3,000 -900 Descending Southern California TRACON
Tue 06:28:53 PM 34.2500 -118.5000 180° South 134 154 2,000 -1,000 Descending Southern California TRACON
Tue 06:30:00 PM 34.2098 -118.4900 180° South  Level Estimated
Tue 06:37:00 PM 34.2098 -118.4900 180° South  Level Estimated

Login

Don't have an account? Register now (free) for customized features, flight alerts, and more!